Time;durP1;ratioP1;P1;durP2;ratioP2;P2;SDS_P1;SDS_P2;PMS_P1;PMS_P2;Temp;Humidity;BMP_temperature;BMP_pressure;BME280_temperature;BME280_humidity;BME280_pressure;Samples;Min_cycle;Max_cycle;Signal;HPM_P1;HPM_P2
2022/03/23 00:01:47;;;;;;;3.17;2.73;;;18.10;44.80;;;;;;5059527;28;20225;-19
2022/03/23 00:04:13;;;;;;;3.83;2.60;;;18.10;44.70;;;;;;5067764;28;20195;-18
2022/03/23 00:06:38;;;;;;;3.40;2.80;;;18.10;44.70;;;;;;5077247;28;20174;-18
2022/03/23 00:09:04;;;;;;;3.20;2.90;;;18.10;44.70;;;;;;5075286;28;20180;-20
2022/03/23 00:11:32;;;;;;;3.20;2.60;;;18.10;44.80;;;;;;5060370;28;20186;-17
2022/03/23 00:13:57;;;;;;;3.60;2.60;;;18.10;44.80;;;;;;5075581;28;20179;-19
2022/03/23 00:16:23;;;;;;;3.73;2.50;;;18.10;44.80;;;;;;5076635;28;20248;-18
2022/03/23 00:18:49;;;;;;;3.13;2.70;;;18.10;44.80;;;;;;5059720;28;20510;-18
2022/03/23 00:21:15;;;;;;;2.93;2.50;;;18.10;44.80;;;;;;5078861;28;20896;-19
2022/03/23 00:23:41;;;;;;;3.50;2.97;;;18.10;44.80;;;;;;5079881;28;20185;-19
2022/03/23 00:26:06;;;;;;;2.97;2.70;;;18.10;44.80;;;;;;5069911;28;20192;-17
2022/03/23 00:28:32;;;;;;;3.00;2.30;;;18.10;44.80;;;;;;5076071;28;20214;-19
2022/03/23 00:30:59;;;;;;;3.57;2.70;;;18.10;44.80;;;;;;5076452;28;20429;-19
2022/03/23 00:33:24;;;;;;;3.10;2.80;;;18.10;44.80;;;;;;5071540;28;20189;-18
2022/03/23 00:35:50;;;;;;;3.87;2.57;;;18.10;44.80;;;;;;5067595;28;20182;-16
2022/03/23 00:38:17;;;;;;;2.90;2.60;;;18.10;44.80;;;;;;5061239;28;20181;-18
2022/03/23 00:40:46;;;;;;;2.90;2.53;;;18.10;44.80;;;;;;5075764;28;20262;-18
2022/03/23 00:43:12;;;;;;;3.00;2.57;;;18.10;44.80;;;;;;5092153;28;20221;-18
2022/03/23 00:45:39;;;;;;;3.00;2.70;;;18.00;44.70;;;;;;5093110;28;20177;-19
2022/03/23 00:48:05;;;;;;;2.83;2.63;;;18.00;44.70;;;;;;5091558;28;20306;-18
2022/03/23 00:50:34;;;;;;;3.40;2.70;;;18.00;44.70;;;;;;5092531;28;20177;-18
2022/03/23 00:52:59;;;;;;;3.00;2.67;;;18.00;44.70;;;;;;5065426;28;20554;-20
2022/03/23 00:55:25;;;;;;;3.30;2.60;;;18.00;44.80;;;;;;5056986;28;20575;-17
2022/03/23 00:57:51;;;;;;;3.10;2.80;;;18.00;44.80;;;;;;5073507;28;20563;-19
2022/03/23 01:00:20;;;;;;;3.70;3.10;;;18.00;44.90;;;;;;5059193;28;20259;-19
2022/03/23 01:07:51;;;;;;;3.03;2.70;;;18.00;44.90;;;;;;5030478;28;20285;-9
2022/03/23 01:10:17;;;;;;;3.03;2.73;;;18.00;44.90;;;;;;5034735;28;20180;-9
2022/03/23 01:12:44;;;;;;;3.40;2.60;;;18.00;44.90;;;;;;5035032;28;20472;-9
2022/03/23 01:15:11;;;;;;;3.07;2.70;;;18.00;44.90;;;;;;5018044;28;20183;-9
2022/03/23 01:17:38;;;;;;;3.30;3.00;;;18.00;44.90;;;;;;5032392;28;20590;-9
2022/03/23 01:20:09;;;;;;;2.73;2.50;;;18.00;44.90;;;;;;5011341;28;20183;-10
2022/03/23 01:22:37;;;;;;;2.80;2.60;;;18.00;44.90;;;;;;5016959;28;20181;-9
2022/03/23 01:25:04;;;;;;;3.07;2.67;;;17.90;44.80;;;;;;5036657;28;20173;-9
2022/03/23 01:27:31;;;;;;;3.33;2.67;;;18.00;44.80;;;;;;5036071;28;20200;-9
2022/03/23 01:29:57;;;;;;;2.90;2.70;;;18.00;44.80;;;;;;5018794;28;20187;-9
2022/03/23 01:32:22;;;;;;;2.97;2.77;;;18.00;44.80;;;;;;5035194;28;20172;-9
2022/03/23 01:34:49;;;;;;;3.10;2.80;;;18.00;44.80;;;;;;5035658;28;20611;-9
2022/03/23 01:37:15;;;;;;;2.77;2.43;;;18.00;44.70;;;;;;5035191;28;20188;-10
2022/03/23 01:39:40;;;;;;;3.27;2.93;;;18.00;44.70;;;;;;5017306;28;20175;-10
2022/03/23 01:42:06;;;;;;;2.87;2.57;;;18.10;44.70;;;;;;5034677;28;20175;-9
2022/03/23 01:44:32;;;;;;;2.77;2.50;;;18.10;44.70;;;;;;5032964;28;20182;-9
2022/03/23 01:47:06;;;;;;;3.00;2.70;;;18.10;44.60;;;;;;5003909;28;20257;-9
2022/03/23 01:49:37;;;;;;;2.90;2.60;;;18.10;44.60;;;;;;5033848;28;20169;-9
2022/03/23 01:52:06;;;;;;;3.30;2.93;;;18.20;44.50;;;;;;5015932;28;20364;-9
2022/03/23 01:54:32;;;;;;;3.13;2.83;;;18.20;44.40;;;;;;5016955;28;20173;-9
2022/03/23 01:56:59;;;;;;;4.60;2.70;;;18.30;44.40;;;;;;5035302;28;20191;-10
2022/03/23 01:59:26;;;;;;;4.33;2.93;;;18.30;44.40;;;;;;5036034;28;20173;-10
2022/03/23 02:01:54;;;;;;;3.40;2.67;;;18.30;44.30;;;;;;5035438;28;20169;-10
2022/03/23 02:04:19;;;;;;;3.00;2.70;;;18.40;44.30;;;;;;5018199;28;20174;-9
2022/03/23 02:06:48;;;;;;;2.77;2.50;;;18.40;44.20;;;;;;5035825;28;20197;-10
2022/03/23 02:09:17;;;;;;;3.30;2.80;;;18.40;44.20;;;;;;5035392;28;20169;-9
2022/03/23 02:11:43;;;;;;;3.37;2.60;;;18.40;44.20;;;;;;5036551;28;20211;-10
2022/03/23 02:14:09;;;;;;;2.60;2.40;;;18.40;44.50;;;;;;5035611;28;20586;-10
2022/03/23 02:16:54;;;;;;;3.07;2.70;;;18.50;44.10;;;;;;5018584;28;20234;-10
2022/03/23 02:19:23;;;;;;;3.10;2.60;;;18.50;44.10;;;;;;5035466;28;20228;-10
2022/03/23 02:21:52;;;;;;;3.00;2.50;;;18.50;44.10;;;;;;5018425;28;20234;-10
2022/03/23 02:24:25;;;;;;;3.57;2.70;;;18.50;44.10;;;;;;5018406;28;20180;-10
2022/03/23 02:26:53;;;;;;;3.30;2.90;;;18.50;44.10;;;;;;5033914;28;20203;-10
2022/03/23 02:29:20;;;;;;;2.80;2.60;;;18.50;44.00;;;;;;5033940;28;20173;-10
2022/03/23 02:31:46;;;;;;;3.07;2.77;;;18.50;44.00;;;;;;5035290;28;20179;-10
2022/03/23 02:34:12;;;;;;;2.57;2.37;;;18.50;44.00;;;;;;5017032;28;20415;-10
2022/03/23 02:36:38;;;;;;;2.83;2.63;;;18.50;44.00;;;;;;5034888;28;20521;-10
2022/03/23 02:39:04;;;;;;;2.80;2.57;;;18.50;44.00;;;;;;5017802;28;20248;-10
2022/03/23 02:41:30;;;;;;;2.90;2.60;;;18.50;43.90;;;;;;5035399;28;20173;-10
2022/03/23 02:43:57;;;;;;;2.97;2.77;;;18.50;43.90;;;;;;5018516;28;20217;-10
2022/03/23 02:46:23;;;;;;;3.27;2.53;;;18.50;43.90;;;;;;5035730;28;20233;-10
2022/03/23 02:48:51;;;;;;;2.80;2.50;;;18.50;43.80;;;;;;5035349;28;20595;-10
2022/03/23 02:51:18;;;;;;;3.20;2.73;;;18.50;43.90;;;;;;5035356;28;20180;-10
2022/03/23 03:02:40;;;;;;;3.13;2.63;;;18.50;43.90;;;;;;5036125;28;20179;-10
2022/03/23 03:05:09;;;;;;;3.07;2.77;;;18.50;43.90;;;;;;5039254;28;20233;-10
2022/03/23 03:10:22;;;;;;;3.50;2.50;;;18.40;43.90;;;;;;5038760;28;20173;-10
2022/03/23 03:12:50;;;;;;;3.73;2.50;;;18.40;43.90;;;;;;5022450;28;20515;-10
2022/03/23 03:15:16;;;;;;;3.23;2.60;;;18.40;43.90;;;;;;5022032;28;20180;-10
2022/03/23 03:17:42;;;;;;;3.00;2.70;;;18.40;43.90;;;;;;5040803;28;20211;-10
2022/03/23 03:20:09;;;;;;;2.60;2.40;;;18.40;43.90;;;;;;5039450;28;20223;-10
2022/03/23 03:22:39;;;;;;;2.60;2.40;;;18.40;44.30;;;;;;5041023;28;20241;-10
2022/03/23 03:25:06;;;;;;;3.77;2.80;;;18.40;44.00;;;;;;5039318;28;20187;-10
2022/03/23 03:27:35;;;;;;;3.17;2.77;;;18.30;43.90;;;;;;5022138;28;20483;-10
2022/03/23 03:30:21;;;;;;;3.10;2.80;;;18.30;44.00;;;;;;5038254;28;20264;-10
2022/03/23 03:36:09;;;;;;;2.53;2.33;;;18.30;44.00;;;;;;5038555;28;20186;-10
2022/03/23 03:38:37;;;;;;;2.73;2.50;;;18.20;44.10;;;;;;5039079;28;20269;-10
2022/03/23 03:41:04;;;;;;;3.60;2.70;;;18.10;44.10;;;;;;5038662;28;20242;-10
2022/03/23 03:43:31;;;;;;;2.90;2.60;;;18.10;44.10;;;;;;5020604;28;20179;-10
2022/03/23 03:45:57;;;;;;;2.70;2.47;;;18.00;44.20;;;;;;5021041;28;20177;-10
2022/03/23 03:48:24;;;;;;;3.40;2.70;;;18.00;44.20;;;;;;5020925;28;20205;-10
2022/03/23 03:50:50;;;;;;;2.67;2.47;;;17.90;44.20;;;;;;5038229;28;20175;-10
2022/03/23 03:53:16;;;;;;;2.53;2.33;;;17.90;44.30;;;;;;5038651;28;20443;-10
2022/03/23 03:55:42;;;;;;;2.80;2.50;;;17.90;44.30;;;;;;5020821;28;20440;-10
2022/03/23 03:58:09;;;;;;;2.97;2.67;;;17.80;44.30;;;;;;5038338;28;20496;-10
2022/03/23 04:00:40;;;;;;;3.40;2.60;;;17.80;44.40;;;;;;5038312;28;20181;-10
2022/03/23 04:03:06;;;;;;;2.80;2.60;;;17.70;44.40;;;;;;5038242;28;20215;-10
2022/03/23 04:05:33;;;;;;;2.70;2.50;;;17.70;44.40;;;;;;5037940;28;20179;-10
2022/03/23 04:08:00;;;;;;;2.77;2.57;;;17.60;44.50;;;;;;5020731;28;20211;-10
2022/03/23 04:10:26;;;;;;;2.80;2.60;;;17.70;44.40;;;;;;5021227;28;20246;-10
2022/03/23 04:12:51;;;;;;;2.60;2.40;;;18.50;44.20;;;;;;5020728;28;20177;-10
2022/03/23 04:15:19;;;;;;;3.10;2.80;;;20.80;41.80;;;;;;5037289;28;20201;-10
2022/03/23 04:17:45;;;;;;;2.80;2.60;;;21.90;40.30;;;;;;5037321;28;20176;-10
2022/03/23 04:20:12;;;;;;;3.73;2.90;;;22.50;39.60;;;;;;5019911;28;20577;-10
2022/03/23 04:22:40;;;;;;;3.00;2.77;;;22.70;39.20;;;;;;5037285;28;20188;-10
2022/03/23 04:25:11;;;;;;;2.83;2.63;;;22.90;39.00;;;;;;5019719;28;20230;-10
2022/03/23 04:27:48;;;;;;;3.57;2.90;;;23.30;38.70;;;;;;5036991;28;20301;-10
2022/03/23 04:30:17;;;;;;;2.70;2.50;;;23.70;38.30;;;;;;5037144;28;20174;-10
2022/03/23 04:32:45;;;;;;;2.97;2.67;;;23.80;38.10;;;;;;5017858;28;20584;-10
2022/03/23 04:35:12;;;;;;;3.10;2.80;;;23.90;38.40;;;;;;5019273;28;20176;-10
2022/03/23 04:37:39;;;;;;;3.17;2.87;;;23.80;37.90;;;;;;5036218;28;20178;-10
2022/03/23 04:40:05;;;;;;;3.13;2.80;;;23.60;38.00;;;;;;5018407;28;20294;-11
2022/03/23 04:42:32;;;;;;;3.07;2.70;;;23.40;38.20;;;;;;5018795;28;20181;-11
2022/03/23 04:44:58;;;;;;;3.10;2.77;;;23.00;38.40;;;;;;5018556;28;20186;-11
2022/03/23 04:47:24;;;;;;;2.90;2.60;;;22.80;38.70;;;;;;5036950;28;20205;-11
2022/03/23 04:49:50;;;;;;;3.43;2.73;;;22.40;39.00;;;;;;5035514;28;20173;-11
2022/03/23 04:52:16;;;;;;;2.90;2.60;;;22.20;39.20;;;;;;5036823;28;20176;-11
2022/03/23 04:54:43;;;;;;;3.10;2.80;;;22.00;39.40;;;;;;5018020;28;20190;-11
2022/03/23 04:57:09;;;;;;;3.30;3.00;;;21.60;39.70;;;;;;5035018;28;20179;-11
2022/03/23 04:59:35;;;;;;;3.77;2.60;;;21.40;40.00;;;;;;5035044;28;20245;-11
2022/03/23 05:02:00;;;;;;;3.10;2.80;;;21.10;40.30;;;;;;5016697;28;20185;-11
2022/03/23 05:04:26;;;;;;;3.10;2.80;;;20.90;40.50;;;;;;5036675;28;20272;-11
2022/03/23 05:06:52;;;;;;;3.30;3.00;;;20.70;40.70;;;;;;5038643;28;20217;-11
2022/03/23 05:09:17;;;;;;;3.37;2.90;;;20.50;40.90;;;;;;5037668;28;20220;-11
2022/03/23 05:11:43;;;;;;;3.93;3.10;;;20.30;41.10;;;;;;5017505;28;20182;-11
2022/03/23 05:14:09;;;;;;;3.00;2.70;;;20.10;41.30;;;;;;5035848;28;20196;-11
2022/03/23 05:16:34;;;;;;;3.47;2.90;;;20.00;41.40;;;;;;5017767;28;20587;-11
2022/03/23 05:19:01;;;;;;;3.50;2.83;;;19.90;41.60;;;;;;5035851;28;20200;-11
2022/03/23 05:21:26;;;;;;;3.43;3.13;;;19.70;41.70;;;;;;5018540;28;20173;-11
2022/03/23 05:23:52;;;;;;;3.40;2.70;;;19.50;41.90;;;;;;5035222;28;20173;-11
2022/03/23 05:26:18;;;;;;;3.77;3.10;;;19.40;42.10;;;;;;5031924;28;20169;-11
2022/03/23 05:28:43;;;;;;;3.40;3.10;;;19.30;42.20;;;;;;5017112;28;20220;-11
2022/03/23 05:31:09;;;;;;;3.47;3.17;;;19.10;42.30;;;;;;5016475;28;20176;-10
2022/03/23 05:33:36;;;;;;;4.00;3.10;;;18.90;42.40;;;;;;5034104;28;20169;-11
2022/03/23 05:36:02;;;;;;;3.40;3.10;;;18.80;42.50;;;;;;5034437;28;20352;-11
2022/03/23 05:38:28;;;;;;;3.37;3.03;;;18.70;42.60;;;;;;5034776;28;20170;-11
2022/03/23 05:40:53;;;;;;;4.80;3.40;;;18.60;42.80;;;;;;5016641;28;20581;-11
2022/03/23 05:43:19;;;;;;;3.40;3.10;;;18.50;42.90;;;;;;5033362;28;20172;-11
2022/03/23 05:45:46;;;;;;;3.60;3.17;;;18.50;43.00;;;;;;5033104;28;20472;-11
2022/03/23 05:48:11;;;;;;;3.17;2.70;;;18.40;43.00;;;;;;5032794;28;20211;-10
2022/03/23 05:50:37;;;;;;;3.67;3.20;;;18.40;43.20;;;;;;5033795;28;20181;-10
2022/03/23 05:53:04;;;;;;;3.23;2.90;;;18.40;43.10;;;;;;5016189;28;20181;-10
2022/03/23 05:55:30;;;;;;;3.87;3.30;;;18.40;43.00;;;;;;5032535;28;20486;-10
2022/03/23 05:57:56;;;;;;;4.83;3.30;;;18.70;42.90;;;;;;5014537;28;20338;-10
2022/03/23 06:00:22;;;;;;;3.13;2.83;;;18.90;42.70;;;;;;5032281;28;20278;-10
2022/03/23 06:02:48;;;;;;;3.43;3.13;;;19.40;42.20;;;;;;5014665;28;20230;-11
2022/03/23 06:05:13;;;;;;;3.30;3.00;;;20.20;41.60;;;;;;5032394;28;20184;-10
2022/03/23 06:07:39;;;;;;;3.47;3.10;;;20.90;40.80;;;;;;5032555;28;20578;-10
2022/03/23 06:10:10;;;;;;;3.40;3.07;;;21.60;40.10;;;;;;5031197;28;20200;-11
2022/03/23 06:12:37;;;;;;;6.43;3.73;;;22.30;39.40;;;;;;5031808;28;20184;-10
2022/03/23 06:15:05;;;;;;;3.33;2.97;;;22.80;38.80;;;;;;5031036;28;20239;-11
2022/03/23 06:17:31;;;;;;;3.73;2.83;;;23.20;38.40;;;;;;5031393;28;20379;-11
2022/03/23 06:19:57;;;;;;;3.60;3.07;;;23.40;38.10;;;;;;5012177;28;20584;-11
2022/03/23 06:22:23;;;;;;;4.17;3.27;;;23.50;38.00;;;;;;5029690;28;20212;-11
2022/03/23 06:24:48;;;;;;;3.77;3.07;;;23.60;38.00;;;;;;5029788;28;20186;-11
2022/03/23 06:27:14;;;;;;;3.57;3.07;;;23.50;37.90;;;;;;5028930;28;20208;-11
2022/03/23 06:29:40;;;;;;;3.57;3.27;;;23.40;38.10;;;;;;5028550;28;20183;-11
2022/03/23 06:32:06;;;;;;;3.70;3.10;;;23.30;38.20;;;;;;5028091;28;20169;-11
2022/03/23 06:34:32;;;;;;;3.77;3.33;;;23.20;38.30;;;;;;5010126;28;20176;-11
2022/03/23 06:36:58;;;;;;;3.50;3.20;;;23.00;38.40;;;;;;5028173;28;20165;-11
2022/03/23 06:39:24;;;;;;;3.97;3.47;;;22.90;38.50;;;;;;5027803;28;20195;-11
2022/03/23 06:41:49;;;;;;;4.93;3.40;;;22.70;38.60;;;;;;5011064;28;20565;-11
2022/03/23 06:44:16;;;;;;;6.53;3.17;;;22.50;38.80;;;;;;5010268;28;20235;-11
2022/03/23 06:46:42;;;;;;;3.70;3.30;;;22.30;39.00;;;;;;5010889;28;20710;-11
2022/03/23 06:49:07;;;;;;;4.30;3.53;;;22.20;39.20;;;;;;5011088;28;20213;-11
2022/03/23 06:51:33;;;;;;;5.23;3.60;;;22.00;39.30;;;;;;5029113;28;20427;-11
2022/03/23 06:53:59;;;;;;;3.77;3.47;;;21.80;39.50;;;;;;5011598;28;20172;-11
2022/03/23 06:56:25;;;;;;;4.57;3.53;;;21.70;39.80;;;;;;5011926;28;20176;-11
2022/03/23 06:58:50;;;;;;;3.67;3.27;;;21.50;39.90;;;;;;5010893;28;20176;-11
2022/03/23 07:01:16;;;;;;;4.27;3.50;;;21.40;40.10;;;;;;5029408;28;20174;-11
2022/03/23 07:03:42;;;;;;;3.90;3.40;;;21.30;40.30;;;;;;5011138;28;20245;-11
2022/03/23 07:06:07;;;;;;;3.80;3.50;;;21.20;40.40;;;;;;5026750;28;20196;-11
2022/03/23 07:11:17;;;;;;;4.30;3.40;;;21.00;40.60;;;;;;5026665;28;20620;-11
2022/03/23 07:13:43;;;;;;;3.90;3.47;;;21.00;40.80;;;;;;5026805;28;20180;-11
2022/03/23 07:16:09;;;;;;;5.10;3.77;;;20.90;40.80;;;;;;5028353;28;20470;-11
2022/03/23 07:18:35;;;;;;;4.63;3.80;;;20.90;40.90;;;;;;5027644;28;20188;-11
2022/03/23 07:21:03;;;;;;;4.53;3.57;;;20.80;41.00;;;;;;5028352;28;20694;-11
2022/03/23 07:23:31;;;;;;;4.17;3.77;;;20.80;41.00;;;;;;5028764;28;20168;-11
2022/03/23 07:25:59;;;;;;;5.10;3.83;;;20.80;41.10;;;;;;5010070;28;20246;-11
2022/03/23 07:28:25;;;;;;;5.53;3.77;;;20.80;41.10;;;;;;5028740;28;20310;-11
2022/03/23 07:30:51;;;;;;;5.67;4.17;;;20.80;41.50;;;;;;5027507;28;20165;-11
2022/03/23 07:33:17;;;;;;;5.10;4.50;;;20.80;41.10;;;;;;5029421;28;20187;-11
2022/03/23 07:35:43;;;;;;;4.73;4.27;;;20.80;41.20;;;;;;5009522;28;20183;-11
2022/03/23 07:38:08;;;;;;;5.37;4.73;;;20.80;41.20;;;;;;5026923;28;20173;-11
2022/03/23 07:40:36;;;;;;;7.20;4.37;;;20.80;41.20;;;;;;5027259;28;20439;-11
2022/03/23 07:43:02;;;;;;;6.20;4.50;;;20.80;41.20;;;;;;5010189;28;20183;-11
2022/03/23 07:45:27;;;;;;;6.40;4.60;;;20.80;41.20;;;;;;5028461;28;20169;-11
2022/03/23 07:47:53;;;;;;;6.23;4.93;;;20.80;41.20;;;;;;5010715;28;20497;-11
2022/03/23 07:50:19;;;;;;;7.07;4.97;;;20.80;41.10;;;;;;5013172;28;20416;-11
2022/03/23 07:52:45;;;;;;;8.40;5.23;;;20.90;41.10;;;;;;5014359;28;20173;-11
2022/03/23 07:55:10;;;;;;;5.73;4.93;;;21.00;41.00;;;;;;5014217;28;20176;-11
2022/03/23 07:57:36;;;;;;;6.10;5.20;;;21.20;40.90;;;;;;5030613;28;20544;-11
2022/03/23 08:00:03;;;;;;;7.03;4.97;;;21.30;40.70;;;;;;5030523;28;20169;-11
2022/03/23 08:02:29;;;;;;;6.50;4.93;;;21.40;40.60;;;;;;5030532;28;20227;-11
2022/03/23 08:04:54;;;;;;;6.43;4.93;;;21.50;40.50;;;;;;5030619;28;20177;-11
2022/03/23 08:07:20;;;;;;;5.57;4.53;;;21.60;40.40;;;;;;5030448;28;20286;-11
2022/03/23 08:09:46;;;;;;;6.93;5.30;;;21.70;40.30;;;;;;5030564;28;20250;-11
2022/03/23 08:12:12;;;;;;;8.20;5.37;;;21.70;40.30;;;;;;5012583;28;20173;-11
2022/03/23 08:14:38;;;;;;;5.80;4.90;;;21.70;40.20;;;;;;5012713;28;20192;-11
2022/03/23 08:17:04;;;;;;;7.30;5.30;;;21.70;40.20;;;;;;5030457;28;20165;-11
2022/03/23 08:19:29;;;;;;;6.73;5.10;;;21.70;40.30;;;;;;5029992;28;20161;-11
2022/03/23 08:21:55;;;;;;;9.33;5.80;;;21.70;40.30;;;;;;5028640;28;20223;-11
2022/03/23 08:24:21;;;;;;;6.47;5.17;;;21.70;40.30;;;;;;5012757;28;20223;-11
2022/03/23 08:26:48;;;;;;;7.20;5.20;;;21.70;40.30;;;;;;5030294;28;20165;-12
2022/03/23 08:29:13;;;;;;;5.87;5.27;;;21.70;40.30;;;;;;5031383;28;20266;-12
2022/03/23 08:31:39;;;;;;;7.93;5.63;;;21.70;40.20;;;;;;5030990;28;20503;-11
2022/03/23 08:34:05;;;;;;;8.67;5.60;;;21.70;40.20;;;;;;5030780;28;20173;-12
2022/03/23 08:36:31;;;;;;;6.17;5.00;;;21.80;40.20;;;;;;5031045;28;20190;-12
2022/03/23 08:38:57;;;;;;;5.70;5.13;;;21.80;40.20;;;;;;5028898;28;20181;-12
2022/03/23 08:41:23;;;;;;;7.73;5.70;;;21.90;40.20;;;;;;5030448;28;20187;-12
2022/03/23 08:43:49;;;;;;;6.67;5.70;;;21.90;40.30;;;;;;5031782;28;20418;-12
2022/03/23 08:46:15;;;;;;;5.67;4.87;;;21.90;40.20;;;;;;5033062;28;20565;-12
2022/03/23 08:48:41;;;;;;;6.37;5.07;;;22.00;40.10;;;;;;5031210;28;20548;-12
2022/03/23 08:51:07;;;;;;;7.50;5.37;;;22.00;40.00;;;;;;5030587;28;20354;-12
2022/03/23 08:53:33;;;;;;;6.50;5.03;;;22.10;40.00;;;;;;5011525;28;20272;-12
2022/03/23 08:55:59;;;;;;;6.10;5.10;;;22.20;40.00;;;;;;5030652;28;20280;-12
2022/03/23 08:58:26;;;;;;;6.60;5.47;;;22.30;39.90;;;;;;5031018;28;20181;-12
2022/03/23 09:00:52;;;;;;;5.87;5.23;;;22.30;39.90;;;;;;5011388;28;20199;-12
2022/03/23 09:03:18;;;;;;;8.27;5.30;;;22.40;39.80;;;;;;5029640;28;20635;-12
2022/03/23 09:05:44;;;;;;;7.57;5.43;;;22.40;39.80;;;;;;5028933;28;20184;-12
2022/03/23 09:08:09;;;;;;;5.70;5.17;;;22.50;39.70;;;;;;5029534;28;20283;-12
2022/03/23 09:10:36;;;;;;;7.10;5.43;;;22.60;39.70;;;;;;5010853;28;20205;-12
2022/03/23 09:13:01;;;;;;;7.37;4.97;;;22.70;39.70;;;;;;5029492;28;20161;-12
2022/03/23 09:15:27;;;;;;;6.17;5.23;;;22.80;39.60;;;;;;5011399;28;20173;-12
2022/03/23 09:17:59;;;;;;;5.93;5.30;;;22.80;39.60;;;;;;5030452;28;20172;-12
2022/03/23 09:20:28;;;;;;;6.13;5.43;;;22.90;39.50;;;;;;5012498;28;20211;-12
2022/03/23 09:22:54;;;;;;;5.83;5.23;;;22.90;39.40;;;;;;5027939;28;20276;-13
2022/03/23 09:25:22;;;;;;;6.27;5.67;;;23.00;39.40;;;;;;5029731;28;20481;-12
2022/03/23 09:27:48;;;;;;;5.97;5.37;;;23.00;39.30;;;;;;5010261;28;20217;-12
2022/03/23 09:30:14;;;;;;;6.40;5.20;;;23.00;39.30;;;;;;5010373;28;20169;-12
2022/03/23 09:32:41;;;;;;;6.53;5.65;;;23.00;39.30;;;;;;5009614;28;20562;-12
2022/03/23 09:35:07;;;;;;;6.25;5.05;;;23.00;39.30;;;;;;5010578;28;20259;-12
2022/03/23 09:37:48;;;;;;;5.57;5.07;;;22.70;39.40;;;;;;5029838;28;20180;-12
2022/03/23 09:40:20;;;;;;;7.20;5.68;;;22.30;39.60;;;;;;5011545;28;20459;-12
2022/03/23 09:42:46;;;;;;;7.88;5.22;;;22.00;40.00;;;;;;5028045;28;20180;-12
2022/03/23 09:45:20;;;;;;;5.75;5.10;;;21.70;40.30;;;;;;5028985;28;20239;-12
2022/03/23 09:47:46;;;;;;;5.93;5.10;;;21.50;40.60;;;;;;5011781;28;20254;-12
2022/03/23 09:50:13;;;;;;;6.80;5.15;;;21.30;40.80;;;;;;5028583;28;20169;-12
2022/03/23 09:52:38;;;;;;;6.97;5.30;;;21.20;41.00;;;;;;5010754;28;20227;-13
2022/03/23 09:55:05;;;;;;;5.82;5.22;;;21.10;41.20;;;;;;5028567;28;20196;-12
2022/03/23 09:57:30;;;;;;;5.90;5.30;;;21.00;41.30;;;;;;5026706;28;20231;-12
2022/03/23 09:59:56;;;;;;;6.30;5.50;;;20.90;41.40;;;;;;5027522;28;20398;-12
2022/03/23 10:02:57;;;;;;;5.95;5.32;;;20.90;41.60;;;;;;5028915;28;20491;-12
2022/03/23 10:06:00;;;;;;;5.78;5.18;;;20.80;41.60;;;;;;5026804;28;20185;-12
2022/03/23 10:08:56;;;;;;;5.65;5.07;;;20.70;41.70;;;;;;5010862;28;20216;-12
2022/03/23 10:11:37;;;;;;;6.90;5.30;;;20.70;41.80;;;;;;5026838;28;20307;-12
2022/03/23 10:14:40;;;;;;;5.55;4.97;;;20.70;41.80;;;;;;5029436;28;20498;-12
2022/03/23 10:17:58;;;;;;;5.38;4.88;;;20.60;41.90;;;;;;5028634;28;20541;-12
2022/03/23 10:20:23;;;;;;;5.55;5.05;;;20.60;42.00;;;;;;5028158;28;20230;-12
2022/03/23 10:22:55;;;;;;;6.10;5.07;;;20.60;42.00;;;;;;5027959;28;20165;-12
2022/03/23 10:25:28;;;;;;;5.60;5.10;;;20.60;42.10;;;;;;5028204;28;20508;-12
2022/03/23 10:27:55;;;;;;;5.33;4.83;;;20.50;42.10;;;;;;5028725;28;20193;-12
2022/03/23 10:30:33;;;;;;;5.50;5.00;;;20.50;42.20;;;;;;5028495;28;20165;-13
2022/03/23 10:32:58;;;;;;;5.90;5.03;;;20.50;42.20;;;;;;5027710;28;20333;-12
2022/03/23 10:35:37;;;;;;;5.57;4.97;;;20.50;42.20;;;;;;5009369;28;20164;-12
2022/03/23 10:38:18;;;;;;;6.83;4.90;;;20.50;42.20;;;;;;5027565;28;20263;-12
2022/03/23 10:40:46;;;;;;;6.77;5.30;;;20.50;42.20;;;;;;5028992;28;20409;-12
2022/03/23 10:43:16;;;;;;;8.23;4.80;;;20.50;42.20;;;;;;5026341;28;20200;-12
2022/03/23 10:45:42;;;;;;;5.90;4.73;;;20.60;42.30;;;;;;5028809;28;20180;-12
2022/03/23 10:48:14;;;;;;;7.13;5.50;;;20.60;42.30;;;;;;5028297;28;20477;-12
2022/03/23 10:50:55;;;;;;;6.87;4.80;;;20.50;42.30;;;;;;5027990;28;20451;-12
2022/03/23 10:53:33;;;;;;;5.33;4.60;;;20.50;42.30;;;;;;5027628;28;20231;-11
2022/03/23 10:55:59;;;;;;;6.03;4.97;;;20.50;42.30;;;;;;5028182;28;20368;-11
2022/03/23 11:02:04;;;;;;;5.33;4.77;;;20.50;42.30;;;;;;5006328;28;20181;-11
2022/03/23 11:04:50;;;;;;;6.40;4.87;;;20.50;42.30;;;;;;5007043;28;20203;-11
2022/03/23 11:07:26;;;;;;;6.23;4.50;;;20.60;42.40;;;;;;5007369;28;20192;-11
2022/03/23 11:18:17;;;;;;;6.47;4.63;;;20.50;42.40;;;;;;5007886;28;20195;-11
2022/03/23 11:20:49;;;;;;;5.17;4.60;;;20.50;42.50;;;;;;5007487;28;20180;-11
2022/03/23 11:23:25;;;;;;;5.50;4.90;;;20.50;42.50;;;;;;5007471;28;20183;-11
2022/03/23 11:25:55;;;;;;;6.33;4.53;;;20.50;42.50;;;;;;5010598;28;20340;-11
2022/03/23 11:28:21;;;;;;;5.07;4.57;;;20.50;42.60;;;;;;5011108;28;20194;-11
2022/03/23 11:30:48;;;;;;;6.00;5.00;;;20.50;42.60;;;;;;4992973;28;20209;-11
2022/03/23 11:33:17;;;;;;;5.50;4.67;;;20.50;42.70;;;;;;5011826;28;20184;-11
2022/03/23 11:35:49;;;;;;;5.03;4.33;;;20.50;42.70;;;;;;4994534;28;20227;-11
2022/03/23 11:38:26;;;;;;;6.47;4.73;;;20.50;42.70;;;;;;4994489;28;20176;-11
2022/03/23 11:40:53;;;;;;;6.30;4.90;;;20.50;42.70;;;;;;5011911;28;20171;-11
2022/03/23 11:43:24;;;;;;;5.90;4.50;;;20.50;42.70;;;;;;5010809;28;20621;-11
2022/03/23 11:45:52;;;;;;;5.47;4.83;;;20.50;42.70;;;;;;5010475;28;20170;-11
2022/03/23 11:48:42;;;;;;;5.93;4.63;;;20.50;42.70;;;;;;4993612;28;20209;-11
2022/03/23 11:51:45;;;;;;;6.30;4.90;;;20.50;42.70;;;;;;4993761;28;20178;-11
2022/03/23 11:54:26;;;;;;;4.87;4.37;;;20.50;42.60;;;;;;4994270;28;20269;-11
2022/03/23 11:56:57;;;;;;;5.77;4.37;;;20.50;42.60;;;;;;5010996;28;20170;-11
2022/03/23 11:59:29;;;;;;;5.40;4.23;;;20.50;42.60;;;;;;5011463;28;20439;-11
2022/03/23 12:01:57;;;;;;;5.17;4.57;;;20.50;42.70;;;;;;5009579;28;20170;-11
2022/03/23 12:04:25;;;;;;;4.90;4.40;;;20.50;42.70;;;;;;4992597;28;20255;-11
2022/03/23 12:07:00;;;;;;;5.70;4.63;;;20.50;42.70;;;;;;5010496;28;20345;-11
2022/03/23 12:09:44;;;;;;;5.27;4.77;;;20.50;42.70;;;;;;5008162;28;20197;-11
2022/03/23 12:12:33;;;;;;;4.73;4.33;;;20.50;42.60;;;;;;4990772;28;20502;-11
2022/03/23 12:15:17;;;;;;;5.13;4.63;;;20.50;42.60;;;;;;5009661;28;20568;-11
2022/03/23 12:18:02;;;;;;;5.23;4.57;;;20.50;42.60;;;;;;4992016;28;20184;-11
2022/03/23 12:20:37;;;;;;;4.93;4.43;;;20.50;42.70;;;;;;5008686;28;20322;-11
2022/03/23 12:23:15;;;;;;;4.93;4.40;;;20.40;42.70;;;;;;4992221;28;20480;-11
2022/03/23 12:26:04;;;;;;;6.33;4.63;;;20.50;42.60;;;;;;4992598;28;20178;-11
2022/03/23 12:28:42;;;;;;;6.00;4.60;;;20.50;42.60;;;;;;4992954;28;20247;-11
2022/03/23 12:31:11;;;;;;;5.37;4.77;;;20.50;42.60;;;;;;4991936;28;20185;-11
2022/03/23 12:34:07;;;;;;;5.47;4.93;;;20.40;42.40;;;;;;4990298;28;20447;-11
2022/03/23 12:36:57;;;;;;;5.20;4.60;;;20.40;42.60;;;;;;4992028;28;20479;-11
2022/03/23 12:39:47;;;;;;;4.70;4.30;;;20.50;42.50;;;;;;4990749;28;20177;-11
2022/03/23 12:42:12;;;;;;;4.83;4.33;;;20.50;42.60;;;;;;5008122;28;20231;-11
2022/03/23 12:44:59;;;;;;;5.73;4.70;;;20.40;42.50;;;;;;4992508;28;20184;-11
2022/03/23 12:47:30;;;;;;;5.63;4.70;;;20.40;42.50;;;;;;5010822;28;20283;-11
2022/03/23 12:58:27;;;;;;;7.63;4.40;;;20.50;42.60;;;;;;5008393;28;20553;-11
2022/03/23 13:01:07;;;;;;;5.53;4.30;;;20.40;42.70;;;;;;5006451;28;20522;-11
2022/03/23 13:03:32;;;;;;;6.70;5.00;;;20.40;42.60;;;;;;5008052;28;20224;-11
2022/03/23 13:06:01;;;;;;;6.17;4.33;;;20.40;42.70;;;;;;5008096;28;20560;-11
2022/03/23 13:08:49;;;;;;;5.97;4.70;;;20.50;42.70;;;;;;5010073;28;20594;-11
2022/03/23 13:11:20;;;;;;;6.37;4.47;;;20.50;42.70;;;;;;5016133;28;20211;-11
2022/03/23 13:13:50;;;;;;;4.80;4.30;;;20.40;42.70;;;;;;5014037;28;20252;-11
2022/03/23 13:16:19;;;;;;;6.33;4.73;;;20.50;42.80;;;;;;5007539;28;20177;-11
2022/03/23 13:18:45;;;;;;;4.90;4.40;;;20.40;42.70;;;;;;5008555;28;20181;-11
2022/03/23 13:21:18;;;;;;;5.53;4.40;;;20.40;42.70;;;;;;5008647;28;20185;-11
2022/03/23 13:23:46;;;;;;;5.30;4.80;;;20.40;42.70;;;;;;4992361;28;20188;-11
2022/03/23 13:26:17;;;;;;;6.00;4.87;;;20.50;42.80;;;;;;5010751;28;20165;-11
2022/03/23 13:28:47;;;;;;;5.40;4.80;;;20.40;42.80;;;;;;4991164;28;20457;-11
2022/03/23 13:31:15;;;;;;;5.90;4.43;;;20.40;42.80;;;;;;5009454;28;20165;-11
2022/03/23 13:33:47;;;;;;;5.00;4.50;;;20.40;42.80;;;;;;5008659;28;20532;-11
2022/03/23 13:36:15;;;;;;;6.07;4.77;;;20.40;42.70;;;;;;4990719;28;20194;-11
2022/03/23 13:38:49;;;;;;;6.17;4.73;;;20.40;42.60;;;;;;5006859;28;20571;-11
2022/03/23 13:44:04;;;;;;;5.40;4.90;;;20.40;42.50;;;;;;5001212;28;20167;-11